sensor_id;sensor_type;location;lat;lon;timestamp;P1;durP1;ratioP1;P2;durP2;ratioP2
58637;SDS011;54976;51.510;7.522;2024-01-11T00:02:16;58.38;;;23.45;;
58637;SDS011;54976;51.510;7.522;2024-01-11T00:05:17;60.70;;;23.50;;
58637;SDS011;54976;51.510;7.522;2024-01-11T00:08:18;53.10;;;21.42;;
58637;SDS011;54976;51.510;7.522;2024-01-11T00:11:19;54.55;;;23.08;;
58637;SDS011;54976;51.510;7.522;2024-01-11T00:14:19;64.60;;;25.08;;
58637;SDS011;54976;51.510;7.522;2024-01-11T00:17:20;61.97;;;23.55;;
58637;SDS011;54976;51.510;7.522;2024-01-11T00:20:21;53.28;;;23.45;;
58637;SDS011;54976;51.510;7.522;2024-01-11T00:23:21;61.00;;;25.33;;
58637;SDS011;54976;51.510;7.522;2024-01-11T00:26:23;65.03;;;25.65;;
58637;SDS011;54976;51.510;7.522;2024-01-11T00:29:23;57.30;;;24.20;;
58637;SDS011;54976;51.510;7.522;2024-01-11T00:32:24;58.60;;;22.80;;
58637;SDS011;54976;51.510;7.522;2024-01-11T00:35:24;59.35;;;24.33;;
58637;SDS011;54976;51.510;7.522;2024-01-11T00:38:25;65.55;;;24.02;;
58637;SDS011;54976;51.510;7.522;2024-01-11T00:41:25;61.40;;;25.08;;
58637;SDS011;54976;51.510;7.522;2024-01-11T00:44:26;55.75;;;23.95;;
58637;SDS011;54976;51.510;7.522;2024-01-11T00:47:27;70.55;;;25.50;;
58637;SDS011;54976;51.510;7.522;2024-01-11T00:50:27;66.45;;;25.48;;
58637;SDS011;54976;51.510;7.522;2024-01-11T00:53:28;65.18;;;24.55;;
58637;SDS011;54976;51.510;7.522;2024-01-11T00:56:30;61.97;;;24.35;;
58637;SDS011;54976;51.510;7.522;2024-01-11T00:59:31;57.08;;;24.13;;
58637;SDS011;54976;51.510;7.522;2024-01-11T01:02:31;55.35;;;25.25;;
58637;SDS011;54976;51.510;7.522;2024-01-11T01:05:32;59.70;;;24.10;;
58637;SDS011;54976;51.510;7.522;2024-01-11T01:08:33;59.72;;;24.25;;
58637;SDS011;54976;51.510;7.522;2024-01-11T01:11:33;58.55;;;24.17;;
58637;SDS011;54976;51.510;7.522;2024-01-11T01:14:34;62.53;;;26.38;;
58637;SDS011;54976;51.510;7.522;2024-01-11T01:17:34;58.85;;;23.55;;
58637;SDS011;54976;51.510;7.522;2024-01-11T01:20:35;56.80;;;23.00;;
58637;SDS011;54976;51.510;7.522;2024-01-11T01:23:36;62.65;;;26.38;;
58637;SDS011;54976;51.510;7.522;2024-01-11T01:26:36;52.35;;;22.67;;
58637;SDS011;54976;51.510;7.522;2024-01-11T01:29:37;63.22;;;25.27;;
58637;SDS011;54976;51.510;7.522;2024-01-11T01:32:37;59.42;;;24.80;;
58637;SDS011;54976;51.510;7.522;2024-01-11T01:35:38;61.90;;;25.88;;
58637;SDS011;54976;51.510;7.522;2024-01-11T01:38:38;56.88;;;24.45;;
58637;SDS011;54976;51.510;7.522;2024-01-11T01:41:39;69.70;;;25.75;;
58637;SDS011;54976;51.510;7.522;2024-01-11T01:44:40;63.20;;;24.25;;
58637;SDS011;54976;51.510;7.522;2024-01-11T01:47:41;57.03;;;23.65;;
58637;SDS011;54976;51.510;7.522;2024-01-11T01:50:43;66.63;;;23.98;;
58637;SDS011;54976;51.510;7.522;2024-01-11T01:53:50;67.30;;;25.70;;
58637;SDS011;54976;51.510;7.522;2024-01-11T01:56:53;72.88;;;28.42;;
58637;SDS011;54976;51.510;7.522;2024-01-11T01:59:54;59.97;;;23.75;;
58637;SDS011;54976;51.510;7.522;2024-01-11T02:02:55;62.78;;;25.25;;
58637;SDS011;54976;51.510;7.522;2024-01-11T02:05:56;66.72;;;25.02;;
58637;SDS011;54976;51.510;7.522;2024-01-11T02:08:57;62.20;;;25.10;;
58637;SDS011;54976;51.510;7.522;2024-01-11T02:12:00;63.83;;;25.73;;
58637;SDS011;54976;51.510;7.522;2024-01-11T02:15:02;57.08;;;24.98;;
58637;SDS011;54976;51.510;7.522;2024-01-11T02:18:03;65.68;;;23.98;;
58637;SDS011;54976;51.510;7.522;2024-01-11T02:21:05;75.25;;;27.15;;
58637;SDS011;54976;51.510;7.522;2024-01-11T02:24:09;72.28;;;26.73;;
58637;SDS011;54976;51.510;7.522;2024-01-11T02:27:10;63.10;;;24.73;;
58637;SDS011;54976;51.510;7.522;2024-01-11T02:30:11;66.15;;;26.50;;
58637;SDS011;54976;51.510;7.522;2024-01-11T02:33:12;66.57;;;26.63;;
58637;SDS011;54976;51.510;7.522;2024-01-11T02:36:15;60.08;;;25.40;;
58637;SDS011;54976;51.510;7.522;2024-01-11T02:39:18;61.85;;;24.55;;
58637;SDS011;54976;51.510;7.522;2024-01-11T02:42:19;61.63;;;25.30;;
58637;SDS011;54976;51.510;7.522;2024-01-11T02:45:20;75.60;;;26.52;;
58637;SDS011;54976;51.510;7.522;2024-01-11T02:48:20;63.83;;;24.50;;
58637;SDS011;54976;51.510;7.522;2024-01-11T02:51:21;67.05;;;26.00;;
58637;SDS011;54976;51.510;7.522;2024-01-11T02:54:21;72.45;;;26.02;;
58637;SDS011;54976;51.510;7.522;2024-01-11T02:57:22;69.85;;;26.30;;
58637;SDS011;54976;51.510;7.522;2024-01-11T03:00:23;67.28;;;26.67;;
58637;SDS011;54976;51.510;7.522;2024-01-11T03:03:23;72.55;;;26.15;;
58637;SDS011;54976;51.510;7.522;2024-01-11T03:06:24;70.25;;;25.75;;
58637;SDS011;54976;51.510;7.522;2024-01-11T03:09:24;64.57;;;26.42;;
58637;SDS011;54976;51.510;7.522;2024-01-11T03:12:25;70.55;;;27.38;;
58637;SDS011;54976;51.510;7.522;2024-01-11T03:15:26;61.35;;;25.23;;
58637;SDS011;54976;51.510;7.522;2024-01-11T03:18:26;75.53;;;27.48;;
58637;SDS011;54976;51.510;7.522;2024-01-11T03:21:27;65.80;;;26.35;;
58637;SDS011;54976;51.510;7.522;2024-01-11T03:24:27;65.47;;;25.23;;
58637;SDS011;54976;51.510;7.522;2024-01-11T03:27:28;81.43;;;28.77;;
58637;SDS011;54976;51.510;7.522;2024-01-11T03:30:29;69.57;;;26.75;;
58637;SDS011;54976;51.510;7.522;2024-01-11T03:33:30;69.38;;;26.83;;
58637;SDS011;54976;51.510;7.522;2024-01-11T03:36:31;61.22;;;25.70;;
58637;SDS011;54976;51.510;7.522;2024-01-11T03:39:32;75.68;;;26.52;;
58637;SDS011;54976;51.510;7.522;2024-01-11T03:42:33;71.60;;;26.27;;
58637;SDS011;54976;51.510;7.522;2024-01-11T03:45:33;65.95;;;26.50;;
58637;SDS011;54976;51.510;7.522;2024-01-11T03:48:34;66.50;;;25.70;;
58637;SDS011;54976;51.510;7.522;2024-01-11T03:51:38;72.05;;;25.15;;
58637;SDS011;54976;51.510;7.522;2024-01-11T03:54:38;71.85;;;27.02;;
58637;SDS011;54976;51.510;7.522;2024-01-11T03:57:39;79.53;;;27.08;;
58637;SDS011;54976;51.510;7.522;2024-01-11T04:00:39;61.33;;;25.17;;
58637;SDS011;54976;51.510;7.522;2024-01-11T04:03:41;69.68;;;27.50;;
58637;SDS011;54976;51.510;7.522;2024-01-11T04:06:42;69.45;;;25.52;;
58637;SDS011;54976;51.510;7.522;2024-01-11T04:09:42;67.25;;;27.23;;
58637;SDS011;54976;51.510;7.522;2024-01-11T04:12:43;71.80;;;26.30;;
58637;SDS011;54976;51.510;7.522;2024-01-11T04:15:43;65.57;;;26.33;;
58637;SDS011;54976;51.510;7.522;2024-01-11T04:18:44;65.13;;;26.40;;
58637;SDS011;54976;51.510;7.522;2024-01-11T04:21:45;65.63;;;25.75;;
58637;SDS011;54976;51.510;7.522;2024-01-11T04:24:45;72.00;;;26.73;;
58637;SDS011;54976;51.510;7.522;2024-01-11T04:27:46;72.43;;;25.75;;
58637;SDS011;54976;51.510;7.522;2024-01-11T04:30:46;70.82;;;26.60;;
58637;SDS011;54976;51.510;7.522;2024-01-11T04:33:47;61.97;;;26.20;;
58637;SDS011;54976;51.510;7.522;2024-01-11T04:36:47;65.78;;;26.95;;
58637;SDS011;54976;51.510;7.522;2024-01-11T04:39:48;69.95;;;27.13;;
58637;SDS011;54976;51.510;7.522;2024-01-11T04:42:49;69.07;;;25.80;;
58637;SDS011;54976;51.510;7.522;2024-01-11T04:45:49;68.82;;;26.65;;
58637;SDS011;54976;51.510;7.522;2024-01-11T04:48:51;66.68;;;27.23;;
58637;SDS011;54976;51.510;7.522;2024-01-11T04:51:53;81.63;;;27.00;;
58637;SDS011;54976;51.510;7.522;2024-01-11T04:54:54;67.30;;;25.17;;
58637;SDS011;54976;51.510;7.522;2024-01-11T04:57:55;63.20;;;26.35;;
58637;SDS011;54976;51.510;7.522;2024-01-11T05:00:55;74.30;;;26.73;;
58637;SDS011;54976;51.510;7.522;2024-01-11T05:03:56;61.42;;;24.83;;
58637;SDS011;54976;51.510;7.522;2024-01-11T05:06:56;61.92;;;25.20;;
58637;SDS011;54976;51.510;7.522;2024-01-11T05:09:57;67.85;;;26.92;;
58637;SDS011;54976;51.510;7.522;2024-01-11T05:12:58;70.20;;;28.00;;
58637;SDS011;54976;51.510;7.522;2024-01-11T05:15:58;65.10;;;26.13;;
58637;SDS011;54976;51.510;7.522;2024-01-11T05:18:59;78.43;;;25.52;;
58637;SDS011;54976;51.510;7.522;2024-01-11T05:21:59;68.40;;;25.88;;
58637;SDS011;54976;51.510;7.522;2024-01-11T05:25:00;71.65;;;26.48;;
58637;SDS011;54976;51.510;7.522;2024-01-11T05:28:01;71.65;;;27.17;;
58637;SDS011;54976;51.510;7.522;2024-01-11T05:31:03;67.85;;;28.52;;
58637;SDS011;54976;51.510;7.522;2024-01-11T05:34:09;62.67;;;25.60;;
58637;SDS011;54976;51.510;7.522;2024-01-11T05:37:12;76.53;;;25.75;;
58637;SDS011;54976;51.510;7.522;2024-01-11T05:40:12;68.70;;;25.98;;
58637;SDS011;54976;51.510;7.522;2024-01-11T05:43:13;63.55;;;26.58;;
58637;SDS011;54976;51.510;7.522;2024-01-11T05:46:14;68.15;;;27.95;;
58637;SDS011;54976;51.510;7.522;2024-01-11T05:49:15;96.85;;;43.83;;
58637;SDS011;54976;51.510;7.522;2024-01-11T05:52:16;86.07;;;31.77;;
58637;SDS011;54976;51.510;7.522;2024-01-11T05:55:17;70.88;;;28.30;;
58637;SDS011;54976;51.510;7.522;2024-01-11T05:58:17;71.75;;;27.08;;
58637;SDS011;54976;51.510;7.522;2024-01-11T06:01:18;70.18;;;27.08;;
58637;SDS011;54976;51.510;7.522;2024-01-11T06:04:19;67.45;;;25.90;;
58637;SDS011;54976;51.510;7.522;2024-01-11T06:07:19;73.22;;;27.23;;
58637;SDS011;54976;51.510;7.522;2024-01-11T06:10:20;74.45;;;28.60;;
58637;SDS011;54976;51.510;7.522;2024-01-11T06:13:21;68.80;;;26.27;;
58637;SDS011;54976;51.510;7.522;2024-01-11T06:16:21;68.25;;;28.13;;
58637;SDS011;54976;51.510;7.522;2024-01-11T06:19:22;72.93;;;28.30;;
58637;SDS011;54976;51.510;7.522;2024-01-11T06:22:23;66.20;;;26.95;;
58637;SDS011;54976;51.510;7.522;2024-01-11T06:25:24;84.03;;;27.45;;
58637;SDS011;54976;51.510;7.522;2024-01-11T06:28:24;109.40;;;41.42;;
58637;SDS011;54976;51.510;7.522;2024-01-11T06:31:25;84.68;;;29.15;;
58637;SDS011;54976;51.510;7.522;2024-01-11T06:34:26;71.80;;;27.58;;
58637;SDS011;54976;51.510;7.522;2024-01-11T06:37:28;83.70;;;29.13;;
58637;SDS011;54976;51.510;7.522;2024-01-11T06:40:28;70.93;;;28.20;;
58637;SDS011;54976;51.510;7.522;2024-01-11T06:43:29;78.47;;;29.75;;
58637;SDS011;54976;51.510;7.522;2024-01-11T06:46:30;66.97;;;27.40;;
58637;SDS011;54976;51.510;7.522;2024-01-11T06:49:30;63.20;;;26.48;;
58637;SDS011;54976;51.510;7.522;2024-01-11T06:52:31;65.68;;;27.05;;
58637;SDS011;54976;51.510;7.522;2024-01-11T06:55:32;76.18;;;28.45;;
58637;SDS011;54976;51.510;7.522;2024-01-11T06:58:32;86.28;;;33.22;;
58637;SDS011;54976;51.510;7.522;2024-01-11T07:01:33;87.05;;;33.53;;
58637;SDS011;54976;51.510;7.522;2024-01-11T07:04:34;80.75;;;31.77;;
58637;SDS011;54976;51.510;7.522;2024-01-11T07:07:34;68.75;;;27.92;;
58637;SDS011;54976;51.510;7.522;2024-01-11T07:10:35;88.15;;;30.98;;
58637;SDS011;54976;51.510;7.522;2024-01-11T07:13:37;84.13;;;31.08;;
58637;SDS011;54976;51.510;7.522;2024-01-11T07:16:38;68.03;;;28.45;;
58637;SDS011;54976;51.510;7.522;2024-01-11T07:19:38;70.38;;;26.40;;
58637;SDS011;54976;51.510;7.522;2024-01-11T07:22:39;74.00;;;28.42;;
58637;SDS011;54976;51.510;7.522;2024-01-11T07:25:39;72.22;;;28.42;;
58637;SDS011;54976;51.510;7.522;2024-01-11T07:28:41;68.50;;;27.33;;
58637;SDS011;54976;51.510;7.522;2024-01-11T07:31:41;65.07;;;27.40;;
58637;SDS011;54976;51.510;7.522;2024-01-11T07:34:42;64.57;;;26.00;;
58637;SDS011;54976;51.510;7.522;2024-01-11T07:37:42;68.90;;;26.70;;
58637;SDS011;54976;51.510;7.522;2024-01-11T07:40:43;63.00;;;26.45;;
58637;SDS011;54976;51.510;7.522;2024-01-11T07:43:43;75.82;;;27.60;;
58637;SDS011;54976;51.510;7.522;2024-01-11T07:46:44;69.82;;;27.25;;
58637;SDS011;54976;51.510;7.522;2024-01-11T07:49:45;65.40;;;26.60;;
58637;SDS011;54976;51.510;7.522;2024-01-11T07:52:45;72.47;;;25.00;;
58637;SDS011;54976;51.510;7.522;2024-01-11T07:55:46;67.05;;;26.17;;
58637;SDS011;54976;51.510;7.522;2024-01-11T07:58:47;69.00;;;27.00;;
58637;SDS011;54976;51.510;7.522;2024-01-11T08:01:48;69.05;;;26.83;;
58637;SDS011;54976;51.510;7.522;2024-01-11T08:04:48;70.53;;;27.13;;
58637;SDS011;54976;51.510;7.522;2024-01-11T08:07:49;67.43;;;25.52;;
58637;SDS011;54976;51.510;7.522;2024-01-11T08:10:50;63.63;;;24.85;;
58637;SDS011;54976;51.510;7.522;2024-01-11T08:13:50;72.05;;;26.67;;
58637;SDS011;54976;51.510;7.522;2024-01-11T08:16:53;71.95;;;27.48;;
58637;SDS011;54976;51.510;7.522;2024-01-11T08:19:54;57.78;;;24.70;;
58637;SDS011;54976;51.510;7.522;2024-01-11T08:22:56;63.97;;;26.90;;
58637;SDS011;54976;51.510;7.522;2024-01-11T08:25:57;66.60;;;25.83;;
58637;SDS011;54976;51.510;7.522;2024-01-11T08:28:58;68.80;;;24.58;;
58637;SDS011;54976;51.510;7.522;2024-01-11T08:31:59;78.97;;;27.83;;
58637;SDS011;54976;51.510;7.522;2024-01-11T08:35:01;72.28;;;27.63;;
58637;SDS011;54976;51.510;7.522;2024-01-11T08:38:02;73.07;;;27.33;;
58637;SDS011;54976;51.510;7.522;2024-01-11T08:41:03;70.25;;;25.95;;
58637;SDS011;54976;51.510;7.522;2024-01-11T08:44:04;62.30;;;26.00;;
58637;SDS011;54976;51.510;7.522;2024-01-11T08:47:07;70.20;;;27.35;;
58637;SDS011;54976;51.510;7.522;2024-01-11T08:50:11;66.68;;;27.42;;
58637;SDS011;54976;51.510;7.522;2024-01-11T08:53:15;62.67;;;26.75;;
58637;SDS011;54976;51.510;7.522;2024-01-11T08:56:16;64.60;;;27.25;;
58637;SDS011;54976;51.510;7.522;2024-01-11T08:59:17;76.57;;;30.13;;
58637;SDS011;54976;51.510;7.522;2024-01-11T09:02:17;67.00;;;27.45;;
58637;SDS011;54976;51.510;7.522;2024-01-11T09:05:18;76.80;;;30.42;;
58637;SDS011;54976;51.510;7.522;2024-01-11T09:08:19;77.40;;;29.63;;
58637;SDS011;54976;51.510;7.522;2024-01-11T09:11:20;78.60;;;30.70;;
58637;SDS011;54976;51.510;7.522;2024-01-11T09:14:20;78.53;;;29.48;;
58637;SDS011;54976;51.510;7.522;2024-01-11T09:17:21;73.30;;;29.60;;
58637;SDS011;54976;51.510;7.522;2024-01-11T09:20:21;68.43;;;29.27;;
58637;SDS011;54976;51.510;7.522;2024-01-11T09:23:22;70.82;;;29.52;;
58637;SDS011;54976;51.510;7.522;2024-01-11T09:26:23;65.78;;;27.00;;
58637;SDS011;54976;51.510;7.522;2024-01-11T09:29:24;67.18;;;30.02;;
58637;SDS011;54976;51.510;7.522;2024-01-11T09:32:24;66.57;;;28.02;;
58637;SDS011;54976;51.510;7.522;2024-01-11T09:35:25;69.00;;;28.08;;
58637;SDS011;54976;51.510;7.522;2024-01-11T09:38:26;67.72;;;28.20;;
58637;SDS011;54976;51.510;7.522;2024-01-11T09:41:26;60.15;;;25.55;;
58637;SDS011;54976;51.510;7.522;2024-01-11T09:44:28;69.65;;;27.50;;
58637;SDS011;54976;51.510;7.522;2024-01-11T09:47:30;59.92;;;26.50;;
58637;SDS011;54976;51.510;7.522;2024-01-11T09:50:31;63.83;;;27.80;;
58637;SDS011;54976;51.510;7.522;2024-01-11T09:53:33;63.15;;;26.25;;
58637;SDS011;54976;51.510;7.522;2024-01-11T09:56:34;60.38;;;27.40;;
58637;SDS011;54976;51.510;7.522;2024-01-11T09:59:35;59.97;;;26.25;;
58637;SDS011;54976;51.510;7.522;2024-01-11T10:02:37;61.17;;;26.17;;
58637;SDS011;54976;51.510;7.522;2024-01-11T10:05:37;62.40;;;27.02;;
58637;SDS011;54976;51.510;7.522;2024-01-11T10:08:39;61.70;;;26.70;;
58637;SDS011;54976;51.510;7.522;2024-01-11T10:11:40;65.20;;;27.17;;
58637;SDS011;54976;51.510;7.522;2024-01-11T10:14:41;64.55;;;27.30;;
58637;SDS011;54976;51.510;7.522;2024-01-11T10:17:42;69.25;;;28.15;;
58637;SDS011;54976;51.510;7.522;2024-01-11T10:20:44;63.13;;;29.73;;
58637;SDS011;54976;51.510;7.522;2024-01-11T10:23:44;64.90;;;29.20;;
58637;SDS011;54976;51.510;7.522;2024-01-11T10:26:45;56.60;;;27.92;;
58637;SDS011;54976;51.510;7.522;2024-01-11T10:29:46;70.28;;;29.17;;
58637;SDS011;54976;51.510;7.522;2024-01-11T10:32:46;68.32;;;28.25;;
58637;SDS011;54976;51.510;7.522;2024-01-11T10:35:48;66.82;;;27.45;;
58637;SDS011;54976;51.510;7.522;2024-01-11T10:38:49;60.50;;;27.23;;
58637;SDS011;54976;51.510;7.522;2024-01-11T10:42:05;69.55;;;32.17;;
58637;SDS011;54976;51.510;7.522;2024-01-11T10:45:10;66.03;;;29.70;;
58637;SDS011;54976;51.510;7.522;2024-01-11T10:48:15;68.40;;;28.90;;
58637;SDS011;54976;51.510;7.522;2024-01-11T10:51:16;64.05;;;28.77;;
58637;SDS011;54976;51.510;7.522;2024-01-11T10:54:22;63.10;;;28.27;;
58637;SDS011;54976;51.510;7.522;2024-01-11T10:57:23;66.07;;;28.05;;
58637;SDS011;54976;51.510;7.522;2024-01-11T11:00:24;67.68;;;29.88;;
58637;SDS011;54976;51.510;7.522;2024-01-11T11:03:26;61.88;;;27.50;;
58637;SDS011;54976;51.510;7.522;2024-01-11T11:06:28;67.80;;;28.73;;
58637;SDS011;54976;51.510;7.522;2024-01-11T11:09:30;61.53;;;27.73;;
58637;SDS011;54976;51.510;7.522;2024-01-11T11:12:32;57.90;;;25.65;;
58637;SDS011;54976;51.510;7.522;2024-01-11T11:15:34;62.85;;;27.58;;
58637;SDS011;54976;51.510;7.522;2024-01-11T11:18:37;59.92;;;25.27;;
58637;SDS011;54976;51.510;7.522;2024-01-11T11:21:44;68.93;;;26.75;;
58637;SDS011;54976;51.510;7.522;2024-01-11T11:24:45;61.53;;;27.90;;
58637;SDS011;54976;51.510;7.522;2024-01-11T11:27:46;58.53;;;26.00;;
58637;SDS011;54976;51.510;7.522;2024-01-11T11:30:48;62.95;;;26.65;;
58637;SDS011;54976;51.510;7.522;2024-01-11T11:36:52;67.22;;;26.05;;
58637;SDS011;54976;51.510;7.522;2024-01-11T11:39:56;60.17;;;27.17;;
58637;SDS011;54976;51.510;7.522;2024-01-11T11:42:58;59.78;;;25.67;;
58637;SDS011;54976;51.510;7.522;2024-01-11T11:46:00;59.10;;;25.90;;
58637;SDS011;54976;51.510;7.522;2024-01-11T11:49:07;54.50;;;26.70;;
58637;SDS011;54976;51.510;7.522;2024-01-11T11:52:14;60.58;;;26.30;;
58637;SDS011;54976;51.510;7.522;2024-01-11T11:55:15;68.07;;;26.83;;
58637;SDS011;54976;51.510;7.522;2024-01-11T11:58:17;62.80;;;26.13;;
58637;SDS011;54976;51.510;7.522;2024-01-11T12:01:18;62.50;;;27.25;;
58637;SDS011;54976;51.510;7.522;2024-01-11T12:04:18;60.22;;;27.38;;
58637;SDS011;54976;51.510;7.522;2024-01-11T12:07:19;62.50;;;27.73;;
58637;SDS011;54976;51.510;7.522;2024-01-11T12:10:21;68.88;;;27.48;;
58637;SDS011;54976;51.510;7.522;2024-01-11T12:13:22;60.00;;;26.92;;
58637;SDS011;54976;51.510;7.522;2024-01-11T12:16:25;58.25;;;25.42;;
58637;SDS011;54976;51.510;7.522;2024-01-11T12:19:25;63.35;;;25.92;;
58637;SDS011;54976;51.510;7.522;2024-01-11T12:22:27;58.22;;;26.55;;
58637;SDS011;54976;51.510;7.522;2024-01-11T12:25:27;59.75;;;24.83;;
58637;SDS011;54976;51.510;7.522;2024-01-11T12:28:28;63.13;;;25.67;;
58637;SDS011;54976;51.510;7.522;2024-01-11T12:31:29;57.28;;;25.55;;
58637;SDS011;54976;51.510;7.522;2024-01-11T12:34:29;50.05;;;24.63;;
58637;SDS011;54976;51.510;7.522;2024-01-11T12:37:31;49.13;;;24.42;;
58637;SDS011;54976;51.510;7.522;2024-01-11T12:40:35;54.00;;;26.00;;
58637;SDS011;54976;51.510;7.522;2024-01-11T12:43:40;51.40;;;24.90;;
58637;SDS011;54976;51.510;7.522;2024-01-11T12:46:40;51.80;;;25.77;;
58637;SDS011;54976;51.510;7.522;2024-01-11T12:49:43;47.00;;;23.98;;
58637;SDS011;54976;51.510;7.522;2024-01-11T12:52:46;56.50;;;23.27;;
58637;SDS011;54976;51.510;7.522;2024-01-11T12:56:01;52.15;;;23.35;;
58637;SDS011;54976;51.510;7.522;2024-01-11T12:59:08;45.67;;;21.65;;
58637;SDS011;54976;51.510;7.522;2024-01-11T13:02:09;49.97;;;21.52;;
58637;SDS011;54976;51.510;7.522;2024-01-11T13:05:13;47.50;;;21.95;;
58637;SDS011;54976;51.510;7.522;2024-01-11T13:08:16;45.88;;;20.05;;
58637;SDS011;54976;51.510;7.522;2024-01-11T13:11:16;44.38;;;19.67;;
58637;SDS011;54976;51.510;7.522;2024-01-11T13:14:17;42.35;;;19.35;;
58637;SDS011;54976;51.510;7.522;2024-01-11T13:17:19;36.25;;;17.65;;
58637;SDS011;54976;51.510;7.522;2024-01-11T13:20:20;39.03;;;18.25;;
58637;SDS011;54976;51.510;7.522;2024-01-11T13:23:21;37.55;;;17.20;;
58637;SDS011;54976;51.510;7.522;2024-01-11T13:26:22;39.88;;;17.98;;
58637;SDS011;54976;51.510;7.522;2024-01-11T13:29:22;38.10;;;18.70;;
58637;SDS011;54976;51.510;7.522;2024-01-11T13:32:23;39.28;;;17.98;;
58637;SDS011;54976;51.510;7.522;2024-01-11T13:35:24;38.95;;;17.58;;
58637;SDS011;54976;51.510;7.522;2024-01-11T13:38:24;40.47;;;17.85;;
58637;SDS011;54976;51.510;7.522;2024-01-11T13:41:25;36.75;;;16.63;;
58637;SDS011;54976;51.510;7.522;2024-01-11T13:44:25;38.00;;;17.65;;
58637;SDS011;54976;51.510;7.522;2024-01-11T13:47:26;33.05;;;15.45;;
58637;SDS011;54976;51.510;7.522;2024-01-11T13:50:27;43.03;;;17.65;;
58637;SDS011;54976;51.510;7.522;2024-01-11T13:53:27;36.33;;;17.88;;
58637;SDS011;54976;51.510;7.522;2024-01-11T13:56:28;37.00;;;15.88;;
58637;SDS011;54976;51.510;7.522;2024-01-11T13:59:28;39.65;;;16.88;;
58637;SDS011;54976;51.510;7.522;2024-01-11T14:02:29;32.88;;;15.98;;
58637;SDS011;54976;51.510;7.522;2024-01-11T14:05:30;36.58;;;15.80;;
58637;SDS011;54976;51.510;7.522;2024-01-11T14:08:30;35.17;;;15.98;;
58637;SDS011;54976;51.510;7.522;2024-01-11T14:11:31;33.80;;;15.05;;
58637;SDS011;54976;51.510;7.522;2024-01-11T14:14:31;38.45;;;15.85;;
58637;SDS011;54976;51.510;7.522;2024-01-11T14:17:32;34.58;;;15.23;;
58637;SDS011;54976;51.510;7.522;2024-01-11T14:20:33;31.83;;;15.50;;
58637;SDS011;54976;51.510;7.522;2024-01-11T14:23:34;28.48;;;13.88;;
58637;SDS011;54976;51.510;7.522;2024-01-11T14:26:34;32.78;;;14.82;;
58637;SDS011;54976;51.510;7.522;2024-01-11T14:29:35;28.95;;;13.63;;
58637;SDS011;54976;51.510;7.522;2024-01-11T14:32:36;35.35;;;14.45;;
58637;SDS011;54976;51.510;7.522;2024-01-11T14:35:37;33.35;;;14.88;;
58637;SDS011;54976;51.510;7.522;2024-01-11T14:38:37;28.50;;;13.20;;
58637;SDS011;54976;51.510;7.522;2024-01-11T14:41:38;27.42;;;12.93;;
58637;SDS011;54976;51.510;7.522;2024-01-11T14:44:38;25.42;;;12.88;;
58637;SDS011;54976;51.510;7.522;2024-01-11T14:47:39;34.22;;;14.20;;
58637;SDS011;54976;51.510;7.522;2024-01-11T14:50:40;29.10;;;12.82;;
58637;SDS011;54976;51.510;7.522;2024-01-11T14:53:40;23.58;;;11.50;;
58637;SDS011;54976;51.510;7.522;2024-01-11T14:56:41;23.85;;;12.02;;
58637;SDS011;54976;51.510;7.522;2024-01-11T14:59:45;24.80;;;11.02;;
58637;SDS011;54976;51.510;7.522;2024-01-11T15:02:45;29.05;;;10.50;;
58637;SDS011;54976;51.510;7.522;2024-01-11T15:05:46;21.20;;;9.40;;
58637;SDS011;54976;51.510;7.522;2024-01-11T15:08:47;23.33;;;9.07;;
58637;SDS011;54976;51.510;7.522;2024-01-11T15:11:48;20.73;;;9.55;;
58637;SDS011;54976;51.510;7.522;2024-01-11T15:14:48;18.17;;;9.10;;
58637;SDS011;54976;51.510;7.522;2024-01-11T15:17:50;20.02;;;10.07;;
58637;SDS011;54976;51.510;7.522;2024-01-11T15:20:51;44.67;;;23.95;;
58637;SDS011;54976;51.510;7.522;2024-01-11T15:23:51;21.92;;;10.27;;
58637;SDS011;54976;51.510;7.522;2024-01-11T15:26:52;22.65;;;10.80;;
58637;SDS011;54976;51.510;7.522;2024-01-11T15:29:53;23.50;;;10.20;;
58637;SDS011;54976;51.510;7.522;2024-01-11T15:32:53;19.45;;;8.50;;
58637;SDS011;54976;51.510;7.522;2024-01-11T15:35:54;20.80;;;9.68;;
58637;SDS011;54976;51.510;7.522;2024-01-11T15:38:55;27.08;;;11.50;;
58637;SDS011;54976;51.510;7.522;2024-01-11T15:41:55;26.90;;;12.07;;
58637;SDS011;54976;51.510;7.522;2024-01-11T15:44:56;35.42;;;16.23;;
58637;SDS011;54976;51.510;7.522;2024-01-11T15:47:57;56.30;;;22.17;;
58637;SDS011;54976;51.510;7.522;2024-01-11T15:50:58;35.15;;;16.40;;
58637;SDS011;54976;51.510;7.522;2024-01-11T15:53:59;26.33;;;10.77;;
58637;SDS011;54976;51.510;7.522;2024-01-11T15:56:59;27.42;;;12.25;;
58637;SDS011;54976;51.510;7.522;2024-01-11T16:00:00;34.50;;;14.50;;
58637;SDS011;54976;51.510;7.522;2024-01-11T16:03:01;27.98;;;11.27;;
58637;SDS011;54976;51.510;7.522;2024-01-11T16:06:01;27.67;;;11.38;;
58637;SDS011;54976;51.510;7.522;2024-01-11T16:09:02;31.17;;;11.40;;
58637;SDS011;54976;51.510;7.522;2024-01-11T16:12:08;40.13;;;16.90;;
58637;SDS011;54976;51.510;7.522;2024-01-11T16:15:09;27.35;;;12.15;;
58637;SDS011;54976;51.510;7.522;2024-01-11T16:18:10;31.73;;;12.15;;
58637;SDS011;54976;51.510;7.522;2024-01-11T16:21:11;36.72;;;13.23;;
58637;SDS011;54976;51.510;7.522;2024-01-11T16:24:12;30.77;;;14.10;;
58637;SDS011;54976;51.510;7.522;2024-01-11T16:27:12;31.83;;;13.85;;
58637;SDS011;54976;51.510;7.522;2024-01-11T16:30:13;31.05;;;12.85;;
58637;SDS011;54976;51.510;7.522;2024-01-11T16:33:14;34.28;;;13.82;;
58637;SDS011;54976;51.510;7.522;2024-01-11T16:36:15;41.22;;;14.20;;
58637;SDS011;54976;51.510;7.522;2024-01-11T16:39:16;41.63;;;14.00;;
58637;SDS011;54976;51.510;7.522;2024-01-11T16:42:16;39.22;;;14.45;;
58637;SDS011;54976;51.510;7.522;2024-01-11T16:45:18;43.92;;;14.55;;
58637;SDS011;54976;51.510;7.522;2024-01-11T16:48:19;34.42;;;12.55;;
58637;SDS011;54976;51.510;7.522;2024-01-11T16:51:19;36.40;;;14.52;;
58637;SDS011;54976;51.510;7.522;2024-01-11T16:54:20;36.60;;;14.65;;
58637;SDS011;54976;51.510;7.522;2024-01-11T16:57:21;38.58;;;15.15;;
58637;SDS011;54976;51.510;7.522;2024-01-11T17:00:22;35.50;;;14.32;;
58637;SDS011;54976;51.510;7.522;2024-01-11T17:03:23;38.97;;;14.80;;
58637;SDS011;54976;51.510;7.522;2024-01-11T17:06:23;41.90;;;15.80;;
58637;SDS011;54976;51.510;7.522;2024-01-11T17:09:24;38.45;;;14.27;;
58637;SDS011;54976;51.510;7.522;2024-01-11T17:12:24;33.45;;;13.68;;
58637;SDS011;54976;51.510;7.522;2024-01-11T17:15:25;34.10;;;14.75;;
58637;SDS011;54976;51.510;7.522;2024-01-11T17:18:26;40.78;;;15.45;;
58637;SDS011;54976;51.510;7.522;2024-01-11T17:21:30;39.58;;;15.45;;
58637;SDS011;54976;51.510;7.522;2024-01-11T17:24:31;34.30;;;14.05;;
58637;SDS011;54976;51.510;7.522;2024-01-11T17:27:31;34.45;;;13.10;;
58637;SDS011;54976;51.510;7.522;2024-01-11T17:30:32;38.83;;;15.00;;
58637;SDS011;54976;51.510;7.522;2024-01-11T17:33:33;35.65;;;14.73;;
58637;SDS011;54976;51.510;7.522;2024-01-11T17:36:33;43.72;;;16.30;;
58637;SDS011;54976;51.510;7.522;2024-01-11T17:39:34;37.35;;;13.98;;
58637;SDS011;54976;51.510;7.522;2024-01-11T17:42:35;39.40;;;16.13;;